Time;durP1;ratioP1;P1;durP2;ratioP2;P2;SDS_P1;SDS_P2;PMS_P1;PMS_P2;Temp;Humidity;BMP_temperature;BMP_pressure;BME280_temperature;BME280_humidity;BME280_pressure;Samples;Min_cycle;Max_cycle;Signal;HPM_P1;HPM_P2
2022/01/07 00:01:22;;;;;;;13.87;7.10;;;;;;;-3.06;100.00;101062.69;4933641;28;20113;-81
2022/01/07 00:03:49;;;;;;;14.43;7.93;;;;;;;-3.10;100.00;101053.97;4975801;28;20054;-81
2022/01/07 00:06:18;;;;;;;20.20;8.40;;;;;;;-3.11;100.00;101057.38;4988180;28;20128;-82
2022/01/07 00:08:45;;;;;;;17.77;7.90;;;;;;;-3.08;100.00;101057.47;4972612;28;20039;-81
2022/01/07 00:11:12;;;;;;;15.13;7.97;;;;;;;-3.12;100.00;101050.41;4955047;28;20062;-81
2022/01/07 00:13:39;;;;;;;14.50;7.50;;;;;;;-3.14;100.00;101052.06;4941891;28;20504;-82
2022/01/07 00:16:05;;;;;;;14.47;7.23;;;;;;;-3.13;100.00;101052.09;4967743;28;20044;-82
2022/01/07 00:18:33;;;;;;;15.10;7.93;;;;;;;-3.14;100.00;101047.75;4976079;28;20068;-82
2022/01/07 00:21:00;;;;;;;16.97;7.90;;;;;;;-3.17;100.00;101046.78;4932150;28;20435;-82
2022/01/07 00:23:27;;;;;;;13.53;8.10;;;;;;;-3.19;100.00;101051.00;4954493;28;20054;-81
2022/01/07 00:25:53;;;;;;;12.67;7.43;;;;;;;-3.22;100.00;101056.03;4951344;28;20131;-81
2022/01/07 00:28:20;;;;;;;14.90;7.93;;;;;;;-3.24;100.00;101049.91;4955949;28;20043;-82
2022/01/07 00:30:47;;;;;;;15.90;7.77;;;;;;;-3.27;100.00;101050.69;4959238;28;20074;-82
2022/01/07 00:33:14;;;;;;;12.93;6.50;;;;;;;-3.31;100.00;101046.19;4941545;28;20054;-83
2022/01/07 00:35:41;;;;;;;15.83;7.90;;;;;;;-3.31;100.00;101046.19;4975345;28;20043;-81
2022/01/07 00:38:08;;;;;;;15.50;8.17;;;;;;;-3.32;100.00;101048.72;4956193;28;20038;-81
2022/01/07 00:40:35;;;;;;;16.00;8.27;;;;;;;-3.34;100.00;101048.66;4953731;28;20046;-81
2022/01/07 00:43:02;;;;;;;19.20;8.17;;;;;;;-3.30;100.00;101052.25;4958202;28;20570;-82
2022/01/07 00:45:29;;;;;;;19.97;8.13;;;;;;;-3.32;100.00;101040.97;4955363;28;20447;-81
2022/01/07 00:47:56;;;;;;;16.67;8.13;;;;;;;-3.25;100.00;101043.88;4958776;28;20046;-83
2022/01/07 00:50:25;;;;;;;16.07;8.43;;;;;;;-3.23;100.00;101037.06;4956127;28;20050;-81
2022/01/07 00:52:52;;;;;;;21.03;8.07;;;;;;;-3.23;100.00;101034.47;4949931;28;20065;-81
2022/01/07 00:55:20;;;;;;;15.03;7.97;;;;;;;-3.24;100.00;101034.41;4974883;28;20046;-81
2022/01/07 00:58:18;;;;;;;15.27;7.40;;;;;;;-3.25;100.00;101030.06;4963013;23;20038;31
2022/01/07 01:01:00;;;;;;;16.50;8.40;;;;;;;-3.05;100.00;101023.09;4933404;29;20053;-81
2022/01/07 01:03:31;;;;;;;15.20;8.10;;;;;;;-3.10;100.00;101022.06;4911072;29;20052;-80
2022/01/07 01:06:01;;;;;;;16.53;8.10;;;;;;;-3.16;100.00;101028.75;4920921;29;20050;-80
2022/01/07 01:08:30;;;;;;;10.83;6.13;;;;;;;-3.21;100.00;101030.25;4934253;29;20060;-80
2022/01/07 01:10:59;;;;;;;16.40;7.30;;;;;;;-3.23;100.00;101021.56;4901095;29;20060;-81
2022/01/07 01:13:29;;;;;;;15.57;7.70;;;;;;;-3.21;100.00;101017.31;4957845;29;20044;-80
2022/01/07 01:15:58;;;;;;;15.27;8.00;;;;;;;-3.16;100.00;101010.66;4923927;29;20079;-81
2022/01/07 01:18:28;;;;;;;16.70;8.50;;;;;;;-3.20;100.00;101011.31;4955985;29;20043;-80
2022/01/07 01:20:56;;;;;;;15.13;7.27;;;;;;;-3.21;100.00;101004.41;4920896;29;20051;-81
2022/01/07 01:23:22;;;;;;;14.70;7.57;;;;;;;-3.19;100.00;100997.63;4894030;29;20048;-80
2022/01/07 01:25:49;;;;;;;13.17;7.43;;;;;;;-3.19;100.00;100997.63;4903678;29;20085;-80
2022/01/07 01:28:16;;;;;;;17.03;8.60;;;;;;;-3.18;100.00;100993.31;4930227;29;20040;-80
2022/01/07 01:30:43;;;;;;;15.87;7.53;;;;;;;-3.19;100.00;100991.56;4906994;29;20040;-80
2022/01/07 01:33:11;;;;;;;15.40;8.27;;;;;;;-3.20;100.00;100988.06;4937247;29;20035;-81
2022/01/07 01:35:39;;;;;;;21.27;8.50;;;;;;;-3.14;100.00;100990.91;4894185;29;20490;-80
2022/01/07 01:38:06;;;;;;;16.63;7.47;;;;;;;-3.13;100.00;100981.44;4907783;29;20482;-80
2022/01/07 01:40:34;;;;;;;19.73;8.20;;;;;;;-3.10;100.00;100991.06;4903035;29;20056;-81
2022/01/07 01:43:01;;;;;;;16.23;7.17;;;;;;;-3.17;100.00;100989.91;4893602;29;20052;-80
2022/01/07 01:45:28;;;;;;;15.77;7.33;;;;;;;-3.19;100.00;100983.81;4921589;29;20052;-80
2022/01/07 01:47:55;;;;;;;16.93;7.47;;;;;;;-3.21;100.00;100977.69;4933277;29;20044;-80
2022/01/07 01:50:23;;;;;;;17.50;7.07;;;;;;;-3.26;100.00;100974.94;4925501;29;20055;-80
2022/01/07 01:52:56;;;;;;;13.50;6.23;;;;;;;-3.27;100.00;100973.16;4905626;29;20052;-80
2022/01/07 01:55:25;;;;;;;16.63;7.72;;;;;;;-3.24;100.00;100975.00;4917415;29;20107;-80
2022/01/07 01:57:53;;;;;;;14.67;7.10;;;;;;;-3.22;100.00;100973.34;4887615;29;20056;-80
2022/01/07 02:00:22;;;;;;;13.50;7.23;;;;;;;-3.15;100.00;100977.94;4922863;29;20111;-80
2022/01/07 02:02:49;;;;;;;17.90;7.20;;;;;;;-3.15;100.00;100980.53;4924795;29;20047;-80
2022/01/07 02:05:16;;;;;;;12.93;7.07;;;;;;;-3.21;100.00;100972.50;4940932;29;20040;-80
2022/01/07 02:07:43;;;;;;;12.83;6.90;;;;;;;-3.30;100.00;100969.56;4928998;29;20041;-80
2022/01/07 02:10:13;;;;;;;15.33;7.70;;;;;;;-3.22;100.00;100963.88;4914450;29;20055;-80
2022/01/07 02:12:40;;;;;;;15.07;6.80;;;;;;;-3.30;100.00;100966.97;4892609;29;20164;-81
2022/01/07 02:15:09;;;;;;;15.93;6.80;;;;;;;-3.35;100.00;100955.59;4925307;29;20055;-80
2022/01/07 02:17:40;;;;;;;15.03;6.73;;;;;;;-3.38;100.00;100952.88;4919580;29;20585;-80
2022/01/07 02:20:08;;;;;;;23.60;8.97;;;;;;;-3.38;100.00;100955.47;4925637;29;20112;-80
2022/01/07 02:22:34;;;;;;;11.37;6.57;;;;;;;-3.37;100.00;100955.50;4892142;29;20048;-80
2022/01/07 02:25:01;;;;;;;19.10;7.23;;;;;;;-3.45;100.00;100947.50;4909998;29;20064;-80
2022/01/07 02:27:28;;;;;;;11.63;6.37;;;;;;;-3.45;100.00;100954.31;4939741;29;20058;-80
2022/01/07 02:29:55;;;;;;;13.00;5.90;;;;;;;-3.49;100.00;100952.44;4922513;29;20044;-80
2022/01/07 02:32:22;;;;;;;13.03;6.03;;;;;;;-3.53;100.00;100945.38;4893086;29;20048;-79
2022/01/07 02:34:49;;;;;;;11.53;5.37;;;;;;;-3.54;100.00;100946.22;4919581;29;20044;-79
2022/01/07 02:37:15;;;;;;;11.73;5.57;;;;;;;-3.57;100.00;100938.34;4901264;29;20028;-79
2022/01/07 02:39:44;;;;;;;15.87;5.97;;;;;;;-3.58;100.00;100941.75;4920762;29;20048;-80
2022/01/07 02:42:10;;;;;;;14.37;6.10;;;;;;;-3.57;100.00;100939.22;4932796;29;20048;-79
2022/01/07 02:44:37;;;;;;;13.47;5.60;;;;;;;-3.57;100.00;100938.34;4951314;29;20039;-80
2022/01/07 02:47:04;;;;;;;14.03;6.37;;;;;;;-3.59;100.00;100938.28;4916723;29;20063;-79
2022/01/07 02:49:31;;;;;;;10.47;5.53;;;;;;;-3.62;100.00;100942.44;4931141;29;20083;-79
2022/01/07 02:51:57;;;;;;;9.73;5.50;;;;;;;-3.65;100.00;100935.44;4935583;29;20048;-80
2022/01/07 02:54:24;;;;;;;12.80;5.70;;;;;;;-3.65;100.00;100939.72;4902186;29;20057;-80
2022/01/07 02:56:51;;;;;;;14.63;6.03;;;;;;;-3.62;100.00;100932.09;4925807;29;20055;-80
2022/01/07 02:59:18;;;;;;;13.57;7.10;;;;;;;-3.65;100.00;100938.03;4942542;29;20035;-80
2022/01/07 03:01:45;;;;;;;10.87;5.63;;;;;;;-3.63;100.00;100930.34;4917091;29;20085;-80
2022/01/07 03:04:12;;;;;;;14.97;6.43;;;;;;;-3.63;100.00;100930.34;4917946;29;20096;-80
2022/01/07 03:06:38;;;;;;;10.37;4.87;;;;;;;-3.67;100.00;100921.59;4901820;29;20052;-80
2022/01/07 03:09:06;;;;;;;11.47;5.67;;;;;;;-3.66;100.00;100919.91;4927831;29;20044;-80
2022/01/07 03:11:33;;;;;;;11.57;5.30;;;;;;;-3.65;100.00;100916.50;4919036;29;20044;-80
2022/01/07 03:14:00;;;;;;;13.90;5.17;;;;;;;-3.61;100.00;100906.38;4938047;29;20059;-81
2022/01/07 03:16:27;;;;;;;9.70;4.67;;;;;;;-3.63;100.00;100918.31;4922979;29;20650;-80
2022/01/07 03:18:53;;;;;;;7.87;4.53;;;;;;;-3.67;100.00;100903.53;4936897;29;20040;-80
2022/01/07 03:21:20;;;;;;;14.70;6.40;;;;;;;-3.68;100.00;100901.78;4932729;29;20044;-80
2022/01/07 03:23:47;;;;;;;11.53;5.13;;;;;;;-3.69;100.00;100906.06;4931864;29;20036;-80
2022/01/07 03:26:13;;;;;;;14.30;5.00;;;;;;;-3.73;100.00;100909.31;4936046;29;20059;-79
2022/01/07 03:28:40;;;;;;;14.17;5.47;;;;;;;-3.71;100.00;100902.50;4921458;29;20072;-79
2022/01/07 03:31:07;;;;;;;11.20;4.73;;;;;;;-3.75;100.00;100900.63;4940214;29;20085;-79
2022/01/07 03:33:34;;;;;;;10.30;5.30;;;;;;;-3.69;100.00;100903.47;4906635;29;20044;-80
2022/01/07 03:36:00;;;;;;;11.93;4.97;;;;;;;-3.67;100.00;100894.91;4925768;29;20055;-81
2022/01/07 03:38:27;;;;;;;11.13;5.07;;;;;;;-3.68;100.00;100896.59;4905784;29;20040;-79
2022/01/07 03:40:54;;;;;;;13.13;5.23;;;;;;;-3.65;100.00;100896.72;4891051;29;20060;-79
2022/01/07 03:43:21;;;;;;;10.00;5.17;;;;;;;-3.61;100.00;100892.56;4920605;29;20134;-80
2022/01/07 03:45:48;;;;;;;13.97;5.10;;;;;;;-3.56;100.00;100891.91;4918212;29;20166;-80
2022/01/07 03:48:14;;;;;;;12.97;4.83;;;;;;;-3.49;100.00;100896.50;4931689;29;21360;-80
2022/01/07 03:50:41;;;;;;;11.50;4.70;;;;;;;-3.48;100.00;100898.28;4910067;29;20047;-80
2022/01/07 03:53:08;;;;;;;12.73;4.80;;;;;;;-3.45;100.00;100905.25;4933873;29;20052;-80
2022/01/07 03:55:34;;;;;;;16.40;5.07;;;;;;;-3.47;100.00;100889.69;4919456;29;20044;-80
2022/01/07 03:58:02;;;;;;;9.27;4.63;;;;;;;-3.48;100.00;100889.66;4942635;29;20055;-80
2022/01/07 04:00:33;;;;;;;11.10;5.03;;;;;;;-3.46;100.00;100898.31;4903622;29;20059;-80
2022/01/07 04:03:07;;;;;;;10.03;4.93;;;;;;;-3.47;100.00;100892.28;4895451;29;20067;-80
2022/01/07 04:05:34;;;;;;;;;;;;;;;-3.49;100.00;100883.59;4922208;29;20055;-79
2022/01/07 04:08:00;;;;;;;10.20;4.10;;;;;;;-3.45;100.00;100877.75;4946085;29;19951;-80
2022/01/07 04:10:27;;;;;;;13.53;6.13;;;;;;;-3.43;100.00;100873.50;4943994;29;20072;-80
2022/01/07 04:12:54;;;;;;;13.40;4.90;;;;;;;-3.45;100.00;100866.50;4930383;29;20048;-79
2022/01/07 04:15:23;;;;;;;9.70;4.30;;;;;;;-3.44;100.00;100879.50;4914972;29;20051;-80
2022/01/07 04:17:51;;;;;;;11.20;4.77;;;;;;;-3.45;100.00;100870.00;4912985;29;20040;-80
2022/01/07 04:20:23;;;;;;;13.97;5.30;;;;;;;-3.42;100.00;100871.81;4914742;29;20048;-80
2022/01/07 04:22:51;;;;;;;13.73;5.03;;;;;;;-3.40;100.00;100865.88;4928814;29;20078;-79
2022/01/07 04:25:18;;;;;;;11.97;5.50;;;;;;;-3.35;100.00;100860.91;4935427;29;20070;-79
2022/01/07 04:27:49;;;;;;;11.80;4.73;;;;;;;-3.19;100.00;100858.09;4916587;29;20047;-80
2022/01/07 04:30:16;;;;;;;10.80;5.37;;;;;;;-3.27;100.00;100862.06;4931359;29;20051;-80
2022/01/07 04:32:43;;;;;;;11.37;6.17;;;;;;;-3.24;100.00;100854.44;4914530;29;20044;-80
2022/01/07 04:35:12;;;;;;;11.77;6.43;;;;;;;-3.25;100.00;100847.50;4930162;29;20052;-80
2022/01/07 04:37:39;;;;;;;9.93;5.00;;;;;;;-3.18;100.00;100839.16;4931409;29;20047;-80
2022/01/07 04:40:09;;;;;;;11.27;5.07;;;;;;;-3.14;100.00;100824.66;4913746;29;20050;-80
2022/01/07 04:42:36;;;;;;;13.03;5.03;;;;;;;-3.10;100.00;100831.72;4892191;29;20032;-80
2022/01/07 04:45:05;;;;;;;14.83;6.40;;;;;;;-3.06;100.00;100822.34;4950236;28;20044;-80
2022/01/07 04:47:34;;;;;;;12.10;5.30;;;;;;;-3.05;100.00;100814.66;4925190;29;20416;-79
2022/01/07 04:50:03;;;;;;;17.53;5.80;;;;;;;-3.03;100.00;100828.50;4914691;29;20052;-80
2022/01/07 04:52:29;;;;;;;10.20;4.77;;;;;;;-3.04;100.00;100813.81;4909791;29;20134;-80
2022/01/07 04:54:56;;;;;;;11.83;4.67;;;;;;;-3.01;100.00;100811.38;4897018;29;20450;-80
2022/01/07 04:57:23;;;;;;;11.13;5.53;;;;;;;-2.97;100.00;100808.06;4903591;29;20043;-79
2022/01/07 04:59:49;;;;;;;10.60;5.20;;;;;;;-2.88;100.00;100807.50;4934333;29;20054;-80
2022/01/07 05:02:19;;;;;;;11.03;5.47;;;;;;;-2.84;100.00;100797.34;4904176;29;20048;-80
2022/01/07 05:04:46;;;;;;;11.43;4.90;;;;;;;-2.86;100.00;100799.00;4908681;29;20034;-81
2022/01/07 05:07:16;;;;;;;10.27;5.60;;;;;;;-2.83;100.00;100796.50;4908991;29;20048;-81
2022/01/07 05:09:43;;;;;;;14.33;5.30;;;;;;;-2.74;100.00;100795.06;4914191;29;20129;-81
2022/01/07 05:12:10;;;;;;;13.00;5.13;;;;;;;-2.75;100.00;100796.78;4886675;29;20111;-82
2022/01/07 05:14:36;;;;;;;12.07;5.80;;;;;;;-2.74;100.00;100795.94;4882846;29;20060;-81
2022/01/07 05:17:03;;;;;;;11.23;5.40;;;;;;;-2.75;100.00;100788.16;4925074;29;20044;-82
2022/01/07 05:19:30;;;;;;;12.63;5.27;;;;;;;-2.72;100.00;100788.25;4883122;29;20111;-81
2022/01/07 05:21:56;;;;;;;13.10;4.80;;;;;;;-2.74;100.00;100776.97;4880938;29;20048;-81
2022/01/07 05:24:23;;;;;;;11.13;5.50;;;;;;;-2.73;100.00;100781.31;4899989;29;20048;-81
2022/01/07 05:26:50;;;;;;;11.37;5.20;;;;;;;-2.71;100.00;100770.19;4897674;29;20413;-81
2022/01/07 05:29:16;;;;;;;12.63;6.10;;;;;;;-2.50;100.00;100762.31;4888988;29;20044;-82
2022/01/07 05:31:43;;;;;;;10.83;4.83;;;;;;;-2.53;100.00;100769.94;4913708;29;20049;-81
2022/01/07 05:34:10;;;;;;;13.73;5.60;;;;;;;-2.51;100.00;100759.66;4905455;29;20048;-82
2022/01/07 05:36:38;;;;;;;12.60;5.53;;;;;;;-2.37;100.00;100759.28;4912780;29;20052;-81
2022/01/07 05:39:08;;;;;;;15.00;6.33;;;;;;;-2.40;100.00;100755.72;4920766;29;20080;-81
2022/01/07 05:41:35;;;;;;;9.20;4.97;;;;;;;-2.41;100.00;100751.38;4909012;29;20101;-81
2022/01/07 05:44:01;;;;;;;11.00;5.20;;;;;;;-2.43;100.00;100743.56;4923201;29;20048;-82
2022/01/07 05:46:28;;;;;;;14.20;6.47;;;;;;;-2.42;100.00;100741.88;4895928;29;21030;-82
2022/01/07 05:48:55;;;;;;;11.20;4.83;;;;;;;-2.40;100.00;100735.03;4893683;29;20044;-81
2022/01/07 05:51:21;;;;;;;13.70;6.60;;;;;;;-2.36;100.00;100729.97;4899615;29;20040;-82
2022/01/07 05:53:48;;;;;;;15.83;6.30;;;;;;;-2.33;100.00;100735.28;4928045;29;20103;-82
2022/01/07 05:56:15;;;;;;;13.83;5.97;;;;;;;-2.35;100.00;100726.59;4895946;29;20058;-82
2022/01/07 05:58:41;;;;;;;15.37;5.67;;;;;;;-2.36;100.00;100727.41;4918542;29;20450;-82
2022/01/07 06:01:11;;;;;;;11.90;6.03;;;;;;;-2.37;100.00;100719.59;4878913;29;20047;-82
2022/01/07 06:03:39;;;;;;;17.30;6.07;;;;;;;-2.35;100.00;100728.31;4911245;29;20052;-82
2022/01/07 06:06:06;;;;;;;12.03;5.60;;;;;;;-2.34;100.00;100722.28;4919274;29;20099;-81
2022/01/07 06:08:32;;;;;;;11.17;6.30;;;;;;;-2.34;100.00;100715.41;4883716;29;20063;-81
2022/01/07 06:10:59;;;;;;;11.17;6.10;;;;;;;-2.36;100.00;100711.88;4895114;29;20052;-82
2022/01/07 06:13:26;;;;;;;13.43;6.57;;;;;;;-2.27;100.00;100707.03;4880586;29;20068;-82
2022/01/07 06:15:54;;;;;;;12.47;5.83;;;;;;;-2.27;100.00;100707.03;4910070;29;20162;-81
2022/01/07 06:18:21;;;;;;;15.67;6.37;;;;;;;-2.27;100.00;100704.44;4908946;29;20048;-82
2022/01/07 06:20:48;;;;;;;10.27;6.03;;;;;;;-2.28;100.00;100702.66;4880981;29;20052;-82
2022/01/07 06:23:16;;;;;;;12.80;6.67;;;;;;;-2.16;100.00;100698.72;4879519;29;20523;-81
2022/01/07 06:25:44;;;;;;;13.90;6.97;;;;;;;-2.17;100.00;100708.19;4896269;29;20055;-81
2022/01/07 06:28:11;;;;;;;12.50;6.00;;;;;;;-2.24;100.00;100710.53;4894533;29;20048;-82
2022/01/07 06:30:38;;;;;;;12.17;5.73;;;;;;;-2.17;100.00;100697.84;4911669;29;20047;-81
2022/01/07 06:33:05;;;;;;;10.80;6.90;;;;;;;-2.19;100.00;100698.59;4909802;29;20048;-81
2022/01/07 06:35:32;;;;;;;10.43;5.87;;;;;;;-2.18;100.00;100701.25;4894401;29;20053;-81
2022/01/07 06:37:59;;;;;;;13.00;6.73;;;;;;;-2.16;100.00;100699.59;4875947;29;20107;-81
2022/01/07 06:40:26;;;;;;;16.07;6.53;;;;;;;-2.20;100.00;100700.31;4887726;29;20445;-81
2022/01/07 06:42:55;;;;;;;13.33;6.07;;;;;;;-2.17;100.00;100704.72;4877666;29;20055;-81
2022/01/07 06:45:22;;;;;;;15.93;7.10;;;;;;;-2.13;100.00;100698.78;4877553;29;20056;-81
2022/01/07 06:47:49;;;;;;;16.47;6.57;;;;;;;-2.18;100.00;100701.25;4895901;29;20048;-81
2022/01/07 06:50:16;;;;;;;14.13;7.30;;;;;;;-2.09;100.00;100698.94;4928334;29;20159;-81
2022/01/07 06:52:42;;;;;;;14.50;7.00;;;;;;;-2.14;100.00;100694.44;4929527;29;20137;-81
2022/01/07 06:55:09;;;;;;;12.27;5.90;;;;;;;-2.11;100.00;100698.00;4909763;29;20055;-81
2022/01/07 06:57:36;;;;;;;13.93;7.03;;;;;;;-2.07;100.00;100689.50;4929604;29;20055;-80
2022/01/07 07:00:05;;;;;;;16.90;6.80;;;;;;;-2.08;100.00;100687.75;4912241;29;20048;-81
2022/01/07 07:02:35;;;;;;;19.97;6.93;;;;;;;-1.96;100.00;100688.97;4895886;29;20131;-81
2022/01/07 07:05:03;;;;;;;12.13;6.93;;;;;;;-2.03;100.00;100690.47;4896339;29;20072;-81
2022/01/07 07:07:30;;;;;;;15.90;7.27;;;;;;;-1.99;100.00;100685.44;4909238;29;20524;-81
2022/01/07 07:09:57;;;;;;;14.30;6.87;;;;;;;-1.96;100.00;100687.25;4931580;29;20051;-81
2022/01/07 07:12:24;;;;;;;17.37;7.97;;;;;;;-1.89;100.00;100684.00;4898407;29;20048;-81
2022/01/07 07:14:50;;;;;;;11.37;6.60;;;;;;;-1.92;100.00;100686.53;4912694;29;20482;-81
2022/01/07 07:17:17;;;;;;;16.10;6.73;;;;;;;-1.93;100.00;100689.03;4895277;29;20047;-81
2022/01/07 07:19:44;;;;;;;16.57;7.63;;;;;;;-1.97;100.00;100682.91;4930296;29;20048;-82
2022/01/07 07:22:10;;;;;;;13.53;7.23;;;;;;;-1.87;100.00;100684.06;4897254;29;20044;-81
2022/01/07 07:24:37;;;;;;;15.17;7.50;;;;;;;-1.92;100.00;100678.75;4910655;29;20112;-81
2022/01/07 07:27:05;;;;;;;13.43;7.20;;;;;;;-1.93;100.00;100682.19;4894838;29;20052;-81
2022/01/07 07:29:32;;;;;;;16.37;7.07;;;;;;;-1.94;100.00;100674.34;4907175;29;20068;-81
2022/01/07 07:32:03;;;;;;;16.53;8.47;;;;;;;-1.92;100.00;100668.41;4888457;29;20498;-81
2022/01/07 07:37:07;;;;;;;13.70;6.60;;;;;;;-1.84;100.00;100677.28;5023709;23;20056;-80
2022/01/07 07:39:34;;;;;;;16.40;7.17;;;;;;;-1.81;100.00;100674.75;4967933;28;20371;-83
2022/01/07 07:42:01;;;;;;;16.53;6.53;;;;;;;-1.81;100.00;100663.53;4977757;28;20056;-83
2022/01/07 07:44:28;;;;;;;14.30;7.10;;;;;;;-1.87;100.00;100669.41;4964128;28;20053;-83
2022/01/07 07:46:55;;;;;;;13.70;7.27;;;;;;;-1.85;100.00;100666.84;4962343;28;20050;-83
2022/01/07 07:49:21;;;;;;;13.37;7.13;;;;;;;-1.79;100.00;100662.72;4993928;28;20093;-83
2022/01/07 07:51:49;;;;;;;15.83;6.93;;;;;;;-1.74;100.00;100658.56;4943027;28;20054;-83
2022/01/07 07:54:15;;;;;;;13.87;6.70;;;;;;;-1.67;100.00;100651.88;4958027;28;20130;-83
2022/01/07 07:56:42;;;;;;;18.33;7.30;;;;;;;-1.52;100.00;100649.69;4958648;28;20077;-83
2022/01/07 07:59:08;;;;;;;17.33;7.40;;;;;;;-1.54;100.00;100645.31;4976342;28;20038;-82
2022/01/07 08:01:36;;;;;;;15.13;6.87;;;;;;;-1.57;100.00;100640.91;4943306;28;20049;-83
2022/01/07 08:04:04;;;;;;;23.27;7.40;;;;;;;-1.45;100.00;100635.19;4944352;28;20046;-83
2022/01/07 08:06:30;;;;;;;13.83;6.73;;;;;;;-1.46;100.00;100642.09;4959991;28;20113;-83
2022/01/07 08:08:57;;;;;;;11.83;6.43;;;;;;;-1.39;100.00;100642.25;4991978;28;20048;-83
2022/01/07 08:11:30;;;;;;;15.33;5.90;;;;;;;-1.35;100.00;100638.91;4965632;28;20103;-83
2022/01/07 08:17:01;;;;;;;;;;;;;;;-1.26;100.00;100628.78;4979399;28;20050;-84
2022/01/07 08:19:28;;;;;;;11.90;5.70;;;;;;;-1.28;100.00;100636.53;4943396;28;19926;-82
2022/01/07 08:21:55;;;;;;;12.17;6.07;;;;;;;-1.26;100.00;100632.28;4976235;28;20065;-83
2022/01/07 08:24:21;;;;;;;11.37;5.80;;;;;;;-1.11;100.00;100620.53;5015404;28;20505;-84
2022/01/07 08:26:48;;;;;;;16.37;6.07;;;;;;;-1.13;100.00;100634.34;4997200;28;20124;-83
2022/01/07 08:29:16;;;;;;;10.63;6.77;;;;;;;-1.16;100.00;100626.50;4981328;28;20038;-83
2022/01/07 08:36:55;;;;;;;10.10;5.53;;;;;;;-0.98;100.00;100625.22;4975865;28;20048;-83
2022/01/07 08:39:23;;;;;;;13.20;5.47;;;;;;;-0.98;100.00;100628.69;4990297;28;20050;-83
2022/01/07 08:41:50;;;;;;;13.67;6.03;;;;;;;-0.89;100.00;100625.44;4973764;28;20053;-83
2022/01/07 08:44:17;;;;;;;11.60;5.10;;;;;;;-0.87;100.00;100627.22;4971079;28;20415;-84
2022/01/07 08:46:44;;;;;;;14.53;5.17;;;;;;;-0.74;100.00;100622.34;4975073;28;20388;-82
2022/01/07 08:49:11;;;;;;;14.87;7.80;;;;;;;-0.70;100.00;100619.84;4977232;28;20092;-83
2022/01/07 08:51:37;;;;;;;19.07;9.57;;;;;;;-0.71;100.00;100620.69;4959341;28;20050;-82
2022/01/07 08:54:04;;;;;;;13.17;7.03;;;;;;;-0.67;100.00;100613.88;4988576;28;20069;-83
2022/01/07 08:56:32;;;;;;;12.43;5.67;;;;;;;-0.63;100.00;100618.28;4974192;28;20046;-82
2022/01/07 08:58:59;;;;;;;11.00;6.37;;;;;;;-0.58;100.00;100617.56;4951846;28;20062;-82
2022/01/07 09:01:29;;;;;;;10.13;5.63;;;;;;;-0.60;100.00;100614.03;4959212;28;20046;-82
2022/01/07 09:03:56;;;;;;;10.67;4.90;;;;;;;-0.50;100.00;100612.56;4944852;28;20133;-81
2022/01/07 09:06:23;;;;;;;10.40;5.67;;;;;;;-0.45;100.00;100613.53;4959216;28;20054;-82
2022/01/07 09:08:50;;;;;;;17.90;6.90;;;;;;;-0.50;100.00;100609.97;4969697;28;20046;-81
2022/01/07 09:11:16;;;;;;;10.20;5.17;;;;;;;-0.44;100.00;100606.63;4973871;28;20046;-82
2022/01/07 09:13:48;;;;;;;13.13;5.77;;;;;;;-0.33;100.00;100600.84;4970870;28;20078;-83
2022/01/07 09:16:15;;;;;;;10.93;5.60;;;;;;;-0.35;100.00;100605.09;4973905;28;20050;-82
2022/01/07 09:18:42;;;;;;;12.80;6.23;;;;;;;-0.26;100.00;100607.03;4953216;28;20044;-83
2022/01/07 09:21:09;;;;;;;14.17;6.90;;;;;;;-0.17;100.00;100596.88;4981439;28;20053;-82
2022/01/07 09:23:40;;;;;;;16.50;6.77;;;;;;;-0.19;100.00;100600.25;4999963;28;20104;-83
2022/01/07 09:26:09;;;;;;;10.93;5.77;;;;;;;-0.11;100.00;100602.19;4998028;28;20046;-82
2022/01/07 09:28:36;;;;;;;9.10;5.40;;;;;;;-0.10;100.00;100590.94;4998667;28;20414;-83
2022/01/07 09:31:03;;;;;;;9.37;5.80;;;;;;;0.01;100.00;100592.91;4958355;28;20492;-82
2022/01/07 09:33:30;;;;;;;9.33;5.50;;;;;;;0.02;100.00;100592.06;4948673;28;20078;-83
2022/01/07 09:36:16;;;;;;;14.00;5.37;;;;;;;-0.03;100.00;100590.25;4960245;28;20046;-83
2022/01/07 09:38:42;;;;;;;10.23;5.20;;;;;;;0.03;100.00;100583.44;4954389;28;20530;-82
2022/01/07 09:41:09;;;;;;;13.53;4.40;;;;;;;-0.05;100.00;100581.56;4942599;28;20046;-82
2022/01/07 09:43:36;;;;;;;10.17;5.53;;;;;;;-0.02;100.00;100576.41;4943817;28;20054;-83
2022/01/07 09:46:03;;;;;;;12.83;5.50;;;;;;;0.09;100.00;100573.19;4944266;28;20093;-83
2022/01/07 09:48:29;;;;;;;14.03;6.03;;;;;;;0.10;100.00;100572.31;4959826;28;20058;-81
2022/01/07 09:50:56;;;;;;;9.97;5.50;;;;;;;0.17;100.00;100569.88;4959447;28;20133;-83
2022/01/07 09:53:23;;;;;;;9.20;5.27;;;;;;;0.19;100.00;100570.78;4959143;28;20050;-82
2022/01/07 09:55:50;;;;;;;11.57;6.03;;;;;;;0.29;100.00;100564.03;4975659;28;20404;-82
2022/01/07 09:58:16;;;;;;;12.40;4.70;;;;;;;0.32;100.00;100561.50;4958530;28;20050;-82
2022/01/07 10:00:45;;;;;;;10.07;4.80;;;;;;;0.48;100.00;100558.34;4943366;28;20046;-83
2022/01/07 10:03:17;;;;;;;8.47;4.70;;;;;;;0.51;100.00;100553.22;4969575;28;20038;-82
2022/01/07 10:05:45;;;;;;;8.47;5.00;;;;;;;0.63;100.00;100555.16;4974588;28;20049;-82
2022/01/07 10:08:25;;;;;;;10.80;4.37;;;;;;;0.74;100.00;100542.34;4963238;28;20050;-83
2022/01/07 10:11:14;;;;;;;8.30;3.97;;;;;;;0.78;100.00;100549.34;4973876;28;20070;-83
2022/01/07 10:13:43;;;;;;;12.77;6.00;;;;;;;0.86;100.00;100542.56;4975476;28;20041;-82
2022/01/07 10:16:22;;;;;;;10.63;4.60;;;;;;;0.87;100.00;100538.22;4979377;28;20118;-83
2022/01/07 10:18:50;;;;;;;8.53;4.60;;;;;;;0.95;100.00;100539.25;4997805;28;20506;-83
2022/01/07 10:21:18;;;;;;;10.90;4.77;;;;;;;0.91;100.00;100535.69;4979459;28;20052;-82
2022/01/07 10:23:46;;;;;;;10.47;5.00;;;;;;;0.96;100.00;100533.19;4997904;28;20053;-83
2022/01/07 10:26:18;;;;;;;8.93;4.93;;;;;;;1.04;100.00;100531.56;4995954;28;20049;-83
2022/01/07 10:28:46;;;;;;;8.50;4.27;;;;;;;0.91;100.00;100522.69;4997493;28;20426;-82
2022/01/07 10:31:23;;;;;;;7.77;4.83;;;;;;;1.04;99.81;100523.78;4995333;28;20038;-83
2022/01/07 10:33:52;;;;;;;12.40;5.43;;;;;;;0.96;100.00;100526.25;4981831;28;20080;-82
2022/01/07 10:36:21;;;;;;;7.20;3.80;;;;;;;1.00;99.53;100517.63;4995458;28;20080;-82
2022/01/07 10:38:59;;;;;;;8.33;4.97;;;;;;;0.95;100.00;100519.31;4963318;28;20097;-82
2022/01/07 10:41:26;;;;;;;10.37;5.20;;;;;;;1.01;100.00;100519.41;4975619;28;20046;-84
2022/01/07 10:43:53;;;;;;;12.53;4.90;;;;;;;0.98;100.00;100510.66;4962241;28;20096;-83
2022/01/07 10:46:24;;;;;;;8.70;4.33;;;;;;;0.92;100.00;100513.16;4960717;28;20046;-82
2022/01/07 10:49:02;;;;;;;13.13;4.93;;;;;;;0.91;100.00;100508.81;4961858;28;20050;-83
2022/01/07 10:51:36;;;;;;;8.37;4.80;;;;;;;0.98;100.00;100508.94;4976603;28;20096;-84
2022/01/07 10:54:05;;;;;;;8.13;4.27;;;;;;;0.94;100.00;100511.47;4978015;28;20507;-83
2022/01/07 10:56:31;;;;;;;9.97;5.07;;;;;;;1.01;100.00;100505.50;4975088;28;20048;-81
2022/01/07 10:59:01;;;;;;;10.60;5.53;;;;;;;1.04;100.00;100508.16;4974419;28;20074;-83
2022/01/07 11:01:34;;;;;;;9.70;4.27;;;;;;;1.14;100.00;100499.63;4976483;28;20050;-83
2022/01/07 11:04:03;;;;;;;9.10;5.13;;;;;;;1.15;100.00;100498.78;4958101;28;20048;-83
2022/01/07 11:06:30;;;;;;;15.93;4.67;;;;;;;1.26;100.00;100502.44;4950621;28;20125;-83
2022/01/07 11:08:58;;;;;;;9.97;4.40;;;;;;;1.34;100.00;100503.41;4954386;28;20053;-83
2022/01/07 11:11:27;;;;;;;9.03;4.03;;;;;;;1.36;100.00;100495.63;4941064;28;20051;-82
2022/01/07 11:13:56;;;;;;;8.77;4.77;;;;;;;1.35;100.00;100499.09;4942196;28;20050;-83
2022/01/07 11:16:23;;;;;;;12.93;6.47;;;;;;;1.47;97.65;100495.78;4956951;28;20042;-84
2022/01/07 11:18:50;;;;;;;6.50;4.30;;;;;;;1.45;97.72;100487.94;4974448;28;20054;-83
2022/01/07 11:21:19;;;;;;;8.90;4.53;;;;;;;1.43;98.31;100494.88;4956007;28;20039;-82
2022/01/07 11:23:45;;;;;;;9.23;4.10;;;;;;;1.35;99.35;100486.09;4942366;28;20045;-82
2022/01/07 11:26:15;;;;;;;13.37;6.43;;;;;;;1.32;98.62;100483.41;5004655;28;20156;-83